Time;durP1;ratioP1;P1;durP2;ratioP2;P2;SDS_P1;SDS_P2;PMS_P1;PMS_P2;Temp;Humidity;BMP_temperature;BMP_pressure;BME280_temperature;BME280_humidity;BME280_pressure;Samples;Min_cycle;Max_cycle;Signal;HPM_P1;HPM_P2
2022/12/28 00:01:12;;;;;;;7.53;5.97;;;;;;;0.43;100.00;101098.13;5061187;28;20212;-74
2022/12/28 00:03:37;;;;;;;6.17;5.27;;;;;;;0.48;100.00;101095.78;5059157;28;20209;-75
2022/12/28 00:06:03;;;;;;;6.30;5.70;;;;;;;0.52;100.00;101095.13;5058571;28;20210;-74
2022/12/28 00:08:28;;;;;;;6.17;5.53;;;;;;;0.55;100.00;101088.47;5063029;28;20186;-74
2022/12/28 00:11:09;;;;;;;5.77;5.13;;;;;;;0.59;100.00;101086.97;5058454;28;20199;-75
2022/12/28 00:13:35;;;;;;;5.63;5.13;;;;;;;0.60;100.00;101084.47;5057926;28;20185;-74
2022/12/28 00:16:25;;;;;;;5.83;5.27;;;;;;;0.66;100.00;101093.19;5057631;28;20216;-74
2022/12/28 00:18:51;;;;;;;5.80;4.87;;;;;;;0.67;100.00;101088.16;5061816;28;20249;-74
2022/12/28 00:21:16;;;;;;;5.30;4.80;;;;;;;0.70;100.00;101088.31;5056992;28;20194;-75
2022/12/28 00:23:42;;;;;;;5.50;4.93;;;;;;;0.74;100.00;101081.66;5051115;28;20236;-74
2022/12/28 00:26:12;;;;;;;4.77;4.37;;;;;;;0.77;100.00;101074.16;5060170;28;20554;-74
2022/12/28 00:28:38;;;;;;;5.53;4.87;;;;;;;0.82;100.00;101075.25;5059680;28;20197;-74
2022/12/28 00:31:04;;;;;;;5.83;4.63;;;;;;;0.88;100.00;101064.44;5058494;28;20213;-74
2022/12/28 00:33:30;;;;;;;5.53;5.03;;;;;;;0.93;100.00;101059.53;5060993;28;20197;-74
2022/12/28 00:35:57;;;;;;;5.70;5.20;;;;;;;0.98;100.00;101058.06;5058374;28;20194;-75
2022/12/28 00:38:22;;;;;;;5.07;4.67;;;;;;;1.05;100.00;101057.50;5061208;28;20217;-74
2022/12/28 00:40:48;;;;;;;5.07;4.67;;;;;;;1.13;100.00;101055.28;5059066;28;20296;-75
2022/12/28 00:43:13;;;;;;;5.97;4.87;;;;;;;1.20;100.00;101052.19;5058245;28;20213;-73
2022/12/28 00:45:38;;;;;;;5.13;4.73;;;;;;;1.26;100.00;101041.38;5058523;28;20182;-74
2022/12/28 00:48:04;;;;;;;4.67;4.30;;;;;;;1.33;100.00;101041.69;5055514;28;20214;-74
2022/12/28 00:50:30;;;;;;;5.10;4.60;;;;;;;1.40;100.00;101042.81;5060320;28;20727;-74
2022/12/28 00:52:55;;;;;;;4.47;4.07;;;;;;;1.46;100.00;101032.81;5064389;28;20196;-74
2022/12/28 00:55:20;;;;;;;4.17;3.77;;;;;;;1.51;100.00;101035.59;5101157;28;20169;-75
2022/12/28 00:57:46;;;;;;;4.40;4.00;;;;;;;1.55;100.00;101034.88;5088764;28;20202;-73
2022/12/28 01:00:12;;;;;;;4.40;4.00;;;;;;;1.62;100.00;101025.78;5063282;28;20193;-74
2022/12/28 01:02:37;;;;;;;4.20;3.80;;;;;;;1.68;100.00;101021.78;5059540;28;20757;-74
2022/12/28 01:05:04;;;;;;;4.47;4.07;;;;;;;1.74;100.00;101013.50;5060658;28;20972;-74
2022/12/28 01:07:29;;;;;;;4.13;3.83;;;;;;;1.81;100.00;101012.09;5059578;28;20203;-74
2022/12/28 01:09:54;;;;;;;4.30;3.90;;;;;;;1.85;100.00;101008.81;5060108;28;20189;-74
2022/12/28 01:12:20;;;;;;;4.17;3.80;;;;;;;1.87;100.00;101004.63;5060380;28;20240;-74
2022/12/28 01:14:45;;;;;;;3.80;3.50;;;;;;;1.90;100.00;100999.66;5059980;28;20215;-75
2022/12/28 01:17:10;;;;;;;4.97;4.10;;;;;;;1.93;100.00;100991.25;5060378;28;20206;-74
2022/12/28 01:19:35;;;;;;;4.73;4.27;;;;;;;1.98;100.00;100992.28;5059206;28;20642;-74
2022/12/28 01:22:01;;;;;;;4.07;3.67;;;;;;;2.03;100.00;100980.56;5060524;28;20204;-74
2022/12/28 01:24:26;;;;;;;5.40;4.60;;;;;;;2.10;100.00;100979.97;5059673;28;20233;-74
2022/12/28 01:26:54;;;;;;;4.43;3.90;;;;;;;2.20;100.00;100982.84;5059201;28;20312;-73
2022/12/28 01:29:19;;;;;;;4.67;4.27;;;;;;;2.28;100.00;100972.09;5059752;28;20216;-75
2022/12/28 01:31:44;;;;;;;4.50;4.10;;;;;;;2.35;100.00;100970.63;5064109;28;20186;-73
2022/12/28 01:34:10;;;;;;;4.23;3.83;;;;;;;2.42;100.00;100971.75;5062172;28;20185;-75
2022/12/28 01:36:35;;;;;;;4.83;3.93;;;;;;;2.46;100.00;100959.94;5061014;28;20205;-74
2022/12/28 01:39:04;;;;;;;4.33;3.93;;;;;;;2.50;100.00;100957.53;5059520;28;20197;-74
2022/12/28 01:41:30;;;;;;;5.33;4.03;;;;;;;2.54;100.00;100961.06;5059839;28;20212;-74
2022/12/28 01:43:55;;;;;;;3.50;3.20;;;;;;;2.59;100.00;100952.75;5059681;28;20219;-74
2022/12/28 01:46:28;;;;;;;3.33;3.03;;;;;;;2.65;100.00;100959.75;5058091;28;20339;-74
2022/12/28 01:49:01;;;;;;;3.77;3.20;;;;;;;2.69;100.00;100956.47;5061369;28;20186;-74
2022/12/28 01:51:33;;;;;;;3.67;3.30;;;;;;;2.75;100.00;100958.38;5058150;28;20182;-74
2022/12/28 01:54:01;;;;;;;3.90;3.50;;;;;;;2.81;100.00;100958.59;5058813;28;20186;-74
2022/12/28 01:56:27;;;;;;;3.83;3.47;;;;;;;2.84;100.00;100956.16;5056588;28;20634;-74
2022/12/28 01:58:54;;;;;;;3.47;3.07;;;;;;;2.88;100.00;100952.00;5060973;28;20224;-74
2022/12/28 02:01:19;;;;;;;4.03;3.13;;;;;;;2.90;100.00;100946.09;5064946;28;20190;-75
2022/12/28 02:03:45;;;;;;;3.60;3.30;;;;;;;2.94;100.00;100936.00;5066694;28;20193;-74
2022/12/28 02:06:11;;;;;;;3.43;3.10;;;;;;;2.98;100.00;100927.59;5061883;28;20204;-75
2022/12/28 02:08:45;;;;;;;3.43;3.13;;;;;;;3.00;100.00;100908.94;5059460;28;20683;-74
2022/12/28 02:11:13;;;;;;;3.37;3.07;;;;;;;3.05;100.00;100901.41;5061178;28;20213;-75
2022/12/28 02:13:42;;;;;;;3.50;3.20;;;;;;;3.07;100.00;100892.09;5062456;28;20178;-75
2022/12/28 02:16:09;;;;;;;3.83;2.90;;;;;;;3.12;100.00;100890.56;5060275;28;21349;-75
2022/12/28 02:18:35;;;;;;;3.07;2.77;;;;;;;3.15;100.00;100895.78;5064939;28;21207;-74
2022/12/28 02:21:21;;;;;;;3.20;2.67;;;;;;;3.20;100.00;100883.13;5060348;28;20239;-75
2022/12/28 02:23:52;;;;;;;3.00;2.40;;;;;;;3.23;100.00;100884.88;5063491;28;20284;-74
2022/12/28 02:26:26;;;;;;;2.27;2.07;;;;;;;3.24;100.00;100876.41;5060393;28;20232;-75
2022/12/28 02:29:25;;;;;;;2.53;2.33;;;;;;;3.24;100.00;100877.28;5062232;28;20789;-74
2022/12/28 02:32:26;;;;;;;2.87;2.37;;;;;;;3.25;100.00;100863.69;5063783;28;20183;-74
2022/12/28 02:35:13;;;;;;;2.03;1.73;;;;;;;3.27;100.00;100867.13;5057990;28;20194;-75
2022/12/28 02:37:46;;;;;;;1.67;1.50;;;;;;;3.32;100.00;100874.97;5061094;28;20198;-74
2022/12/28 02:40:20;;;;;;;1.93;1.67;;;;;;;3.35;100.00;100875.91;5059754;28;20568;-74
2022/12/28 02:42:47;;;;;;;1.43;1.10;;;;;;;3.40;100.00;100873.47;5063803;28;20225;-74
2022/12/28 02:51:41;;;;;;;1.00;0.90;;;;;;;3.64;100.00;100867.34;5001221;28;20215;-74
2022/12/28 02:57:23;;;;;;;1.50;0.83;;;;;;;3.83;100.00;100849.94;5061856;28;20285;-75
2022/12/28 03:00:13;;;;;;;1.43;0.90;;;;;;;3.90;100.00;100847.59;5060058;28;20190;-74
2022/12/28 03:03:21;;;;;;;1.43;0.70;;;;;;;3.98;100.00;100832.44;5062606;28;20537;-74
2022/12/28 03:08:44;;;;;;;1.80;0.80;;;;;;;4.11;100.00;100833.63;5061612;28;20201;-74
2022/12/28 03:11:15;;;;;;;0.73;0.70;;;;;;;4.19;100.00;100831.28;5070871;28;20170;-75
2022/12/28 03:13:49;;;;;;;1.67;0.70;;;;;;;4.25;100.00;100826.28;5088399;28;21378;-75
2022/12/28 03:16:24;;;;;;;1.40;0.80;;;;;;;4.31;100.00;100823.91;5066358;28;20202;-74
2022/12/28 03:33:06;;;;;;;0.63;0.50;;;;;;;4.62;100.00;100796.47;5060978;28;20191;-76
2022/12/28 03:35:47;;;;;;;0.93;0.60;;;;;;;4.66;100.00;100802.50;5061724;28;20553;-76
2022/12/28 03:38:26;;;;;;;1.80;0.63;;;;;;;4.70;100.00;100797.50;5062814;28;20269;-77
2022/12/28 03:40:59;;;;;;;0.50;0.50;;;;;;;4.75;100.00;100789.03;5057997;28;20275;-75
2022/12/28 03:43:40;;;;;;;0.93;0.50;;;;;;;4.77;100.00;100792.50;5060893;28;20219;-75
2022/12/28 03:46:30;;;;;;;0.70;0.70;;;;;;;4.80;100.00;100790.03;5058147;28;20200;-76
2022/12/28 03:49:00;;;;;;;1.70;0.50;;;;;;;4.84;100.00;100791.84;5058382;28;20193;-75
2022/12/28 03:51:27;;;;;;;0.77;0.60;;;;;;;4.86;100.00;100795.28;5061900;28;20566;-76
2022/12/28 03:53:53;;;;;;;1.23;0.67;;;;;;;4.87;100.00;100792.75;5063090;28;20179;-77
2022/12/28 03:56:22;;;;;;;0.70;0.60;;;;;;;4.91;100.00;100795.41;5062604;28;20209;-74
2022/12/28 03:58:48;;;;;;;2.40;0.70;;;;;;;4.95;100.00;100784.34;5058970;28;20279;-75
2022/12/28 04:01:13;;;;;;;0.80;0.40;;;;;;;4.97;100.00;100778.44;5060121;28;20637;-75
2022/12/28 04:03:39;;;;;;;4.17;0.70;;;;;;;5.01;100.00;100784.50;5061432;28;20250;-74
2022/12/28 04:06:06;;;;;;;0.70;0.53;;;;;;;5.04;100.00;100770.03;5061800;28;20211;-75
2022/12/28 04:08:32;;;;;;;1.47;0.60;;;;;;;5.10;100.00;100776.16;5061192;28;20273;-74
2022/12/28 04:10:59;;;;;;;0.50;0.50;;;;;;;5.13;100.00;100766.81;5061006;28;20919;-74
2022/12/28 04:13:27;;;;;;;1.17;0.63;;;;;;;5.15;100.00;100775.41;5061492;28;20266;-75
2022/12/28 04:15:57;;;;;;;1.00;0.50;;;;;;;5.18;100.00;100772.03;5059652;28;20225;-75
2022/12/28 04:18:22;;;;;;;0.80;0.60;;;;;;;5.21;100.00;100773.81;5057171;28;20267;-74
2022/12/28 04:20:48;;;;;;;2.00;0.70;;;;;;;5.23;100.00;100770.44;5060824;28;20249;-74
2022/12/28 04:23:13;;;;;;;1.30;0.50;;;;;;;5.21;100.00;100777.22;5058260;28;20193;-74
2022/12/28 04:25:39;;;;;;;1.63;0.77;;;;;;;5.18;100.00;100774.59;5061648;28;20717;-74
2022/12/28 04:28:04;;;;;;;1.10;0.63;;;;;;;5.12;100.00;100777.91;5060095;28;20462;-74
2022/12/28 04:30:29;;;;;;;1.00;0.73;;;;;;;5.06;100.00;100777.78;5061483;28;20186;-74
2022/12/28 04:32:54;;;;;;;1.77;0.70;;;;;;;5.01;100.00;100776.81;5059110;28;20795;-74
2022/12/28 04:35:20;;;;;;;1.73;0.70;;;;;;;4.96;100.00;100773.28;5060668;28;20195;-74
2022/12/28 04:37:45;;;;;;;1.20;0.80;;;;;;;4.90;100.00;100765.47;5061547;28;20260;-74
2022/12/28 04:40:11;;;;;;;1.53;0.60;;;;;;;4.87;100.00;100763.66;5059396;28;20222;-74
2022/12/28 04:42:36;;;;;;;1.50;0.60;;;;;;;4.85;100.00;100752.50;5061817;28;20206;-75
2022/12/28 04:45:02;;;;;;;1.40;0.80;;;;;;;4.82;100.00;100747.34;5058563;28;20301;-74
2022/12/28 04:47:27;;;;;;;1.10;0.70;;;;;;;4.83;100.00;100749.06;5057406;28;20206;-74
2022/12/28 04:49:52;;;;;;;3.80;0.90;;;;;;;4.87;100.00;100738.91;5055404;28;20182;-74
2022/12/28 04:52:18;;;;;;;1.87;0.80;;;;;;;4.95;100.00;100751.00;5061010;28;20267;-74
2022/12/28 04:54:43;;;;;;;1.17;0.70;;;;;;;5.01;100.00;100744.31;5060245;28;20648;-74
2022/12/28 04:57:09;;;;;;;1.43;0.90;;;;;;;5.08;100.00;100750.44;5060400;28;20606;-74
2022/12/28 04:59:34;;;;;;;2.43;0.83;;;;;;;5.16;100.00;100750.59;5060335;28;20238;-74
2022/12/28 05:01:59;;;;;;;1.97;0.90;;;;;;;5.23;100.00;100751.59;5059797;28;20299;-75
2022/12/28 05:04:24;;;;;;;1.97;0.97;;;;;;;5.28;100.00;100750.00;5057325;28;20220;-74
2022/12/28 05:06:50;;;;;;;1.87;0.90;;;;;;;5.30;100.00;100749.19;5060262;28;20609;-74
2022/12/28 05:09:17;;;;;;;1.50;0.70;;;;;;;5.34;100.00;100747.56;5057603;28;20561;-74
2022/12/28 05:11:42;;;;;;;2.17;0.80;;;;;;;5.36;100.00;100753.59;5056579;28;20184;-74
2022/12/28 05:14:08;;;;;;;2.17;1.20;;;;;;;5.41;100.00;100744.25;5056650;28;20184;-74
2022/12/28 05:16:33;;;;;;;1.23;0.83;;;;;;;5.45;100.00;100745.19;5053969;28;20228;-74
2022/12/28 05:18:58;;;;;;;1.17;0.90;;;;;;;5.47;100.00;100746.97;5057077;28;20214;-74
2022/12/28 05:21:26;;;;;;;2.17;1.10;;;;;;;5.52;100.00;100749.63;5057031;28;20586;-74
2022/12/28 05:23:52;;;;;;;2.13;0.77;;;;;;;5.57;100.00;100744.56;5059746;28;20626;-74
2022/12/28 05:26:20;;;;;;;1.03;0.80;;;;;;;5.60;100.00;100740.34;5063026;28;20203;-73
2022/12/28 05:28:46;;;;;;;1.43;0.70;;;;;;;5.62;100.00;100733.53;5076656;28;20248;-74
2022/12/28 05:31:14;;;;;;;1.60;0.90;;;;;;;5.64;100.00;100738.72;5084239;28;20161;-75
2022/12/28 05:33:41;;;;;;;1.73;0.90;;;;;;;5.65;100.00;100736.16;5071032;28;20191;-74
2022/12/28 05:36:12;;;;;;;1.80;0.63;;;;;;;5.67;100.00;100725.94;5076189;28;20196;-74
2022/12/28 05:38:38;;;;;;;1.30;0.77;;;;;;;5.65;100.00;100723.31;5073760;28;20187;-74
2022/12/28 05:41:16;;;;;;;2.27;0.83;;;;;;;5.68;100.00;100714.81;5063474;28;20679;-74
2022/12/28 05:43:42;;;;;;;1.10;0.70;;;;;;;5.66;100.00;100706.22;5064362;28;20193;-74
2022/12/28 05:46:13;;;;;;;2.27;0.90;;;;;;;5.62;100.00;100715.56;5062843;28;21503;-73
2022/12/28 05:48:40;;;;;;;2.13;0.80;;;;;;;5.60;100.00;100717.22;5059083;28;20264;-74
2022/12/28 05:51:12;;;;;;;1.27;0.73;;;;;;;5.58;100.00;100711.22;5053870;28;20199;-74
2022/12/28 05:53:38;;;;;;;1.27;1.00;;;;;;;5.53;100.00;100699.13;5059073;28;20219;-74
2022/12/28 05:56:07;;;;;;;1.73;0.90;;;;;;;5.52;100.00;100695.69;5059561;28;20220;-74
2022/12/28 05:58:33;;;;;;;1.83;1.10;;;;;;;5.52;100.00;100707.69;5061611;28;20180;-74
2022/12/28 06:01:05;;;;;;;1.00;0.70;;;;;;;5.52;100.00;100700.84;5064600;28;20212;-74
2022/12/28 06:03:30;;;;;;;2.13;1.00;;;;;;;5.51;100.00;100711.09;5064936;28;20218;-74
2022/12/28 06:05:56;;;;;;;2.30;0.70;;;;;;;5.51;100.00;100705.94;5066353;28;20366;-73
2022/12/28 06:08:22;;;;;;;1.00;0.73;;;;;;;5.48;100.00;100697.34;5064941;28;20190;-74
2022/12/28 06:10:47;;;;;;;1.00;0.90;;;;;;;5.45;100.00;100696.41;5066476;28;20246;-74
2022/12/28 06:13:12;;;;;;;2.10;0.90;;;;;;;5.41;100.00;100692.94;5065264;28;20778;-74
2022/12/28 06:15:38;;;;;;;1.23;0.83;;;;;;;5.38;100.00;100699.72;5065401;28;20190;-74
2022/12/28 06:18:03;;;;;;;1.63;0.80;;;;;;;5.35;100.00;100697.97;5066536;28;20300;-74
2022/12/28 06:20:29;;;;;;;2.70;1.00;;;;;;;5.32;100.00;100690.19;5066099;28;20199;-74
2022/12/28 06:22:54;;;;;;;1.63;0.70;;;;;;;5.29;100.00;100690.13;5060832;28;20219;-73
2022/12/28 06:25:19;;;;;;;1.47;0.90;;;;;;;5.28;100.00;100690.97;5064363;28;20193;-74
2022/12/28 06:27:44;;;;;;;1.53;0.90;;;;;;;5.27;100.00;100684.09;5063535;28;20342;-74
2022/12/28 06:30:11;;;;;;;2.40;0.80;;;;;;;5.26;100.00;100685.81;5067489;28;20675;-74
2022/12/28 06:32:36;;;;;;;2.50;0.90;;;;;;;5.28;100.00;100686.72;5065111;28;20199;-74
2022/12/28 06:35:01;;;;;;;1.90;0.80;;;;;;;5.27;100.00;100685.00;5064344;28;20196;-74
2022/12/28 06:37:27;;;;;;;1.03;0.90;;;;;;;5.29;100.00;100687.56;5064264;28;20762;-74
2022/12/28 06:39:52;;;;;;;1.57;0.80;;;;;;;5.30;100.00;100689.31;5060930;28;20211;-74
2022/12/28 06:42:17;;;;;;;1.73;1.00;;;;;;;5.33;100.00;100687.66;5060268;28;21004;-73
2022/12/28 06:44:42;;;;;;;1.10;0.80;;;;;;;5.39;100.00;100683.47;5061125;28;20252;-74
2022/12/28 06:47:08;;;;;;;1.40;1.00;;;;;;;5.47;100.00;100671.63;5058997;28;20235;-73
2022/12/28 06:49:33;;;;;;;2.43;1.37;;;;;;;5.54;100.00;100670.94;5061012;28;20195;-74
2022/12/28 06:52:01;;;;;;;1.77;1.10;;;;;;;5.63;100.00;100662.53;5061194;28;20180;-74
2022/12/28 06:54:27;;;;;;;1.40;1.00;;;;;;;5.68;100.00;100665.16;5057016;28;20724;-74
2022/12/28 06:56:52;;;;;;;1.57;0.90;;;;;;;5.74;100.00;100655.84;5062033;28;20257;-74
2022/12/28 06:59:17;;;;;;;1.60;1.10;;;;;;;5.78;100.00;100649.94;5065811;28;20233;-75
2022/12/28 07:01:43;;;;;;;1.40;1.00;;;;;;;5.83;100.00;100647.44;5071394;28;20685;-74
2022/12/28 07:04:09;;;;;;;1.60;1.00;;;;;;;5.89;100.00;100644.97;5076299;28;20755;-74
2022/12/28 07:06:37;;;;;;;1.73;0.93;;;;;;;5.94;100.00;100642.47;5063918;28;20212;-74
2022/12/28 07:09:05;;;;;;;2.13;1.23;;;;;;;5.99;100.00;100647.69;5064217;28;20670;-74
2022/12/28 07:11:31;;;;;;;1.47;0.70;;;;;;;6.04;100.00;100653.81;5064890;28;20916;-74
2022/12/28 07:13:56;;;;;;;2.00;1.80;;;;;;;6.08;100.00;100647.84;5065633;28;20192;-74
2022/12/28 07:16:24;;;;;;;3.13;2.73;;;;;;;6.13;100.00;100648.78;5066479;28;20219;-74
2022/12/28 07:18:49;;;;;;;4.33;2.47;;;;;;;6.18;100.00;100648.84;5065865;28;20182;-75
2022/12/28 07:21:24;;;;;;;3.90;2.40;;;;;;;6.22;100.00;100646.34;5065519;28;20207;-74
2022/12/28 07:23:51;;;;;;;4.27;2.63;;;;;;;6.27;100.00;100643.00;5065381;28;20189;-75
2022/12/28 07:26:21;;;;;;;2.03;1.77;;;;;;;6.31;100.00;100640.47;5063112;28;20209;-74
2022/12/28 07:28:49;;;;;;;1.50;1.40;;;;;;;6.36;100.00;100638.84;5065253;28;20201;-74
2022/12/28 07:31:37;;;;;;;2.37;1.00;;;;;;;6.39;100.00;100641.47;5062517;28;20412;-75
2022/12/28 07:34:02;;;;;;;1.80;1.20;;;;;;;6.42;100.00;100634.66;5062883;28;20193;-73
2022/12/28 07:36:30;;;;;;;1.80;1.10;;;;;;;6.43;100.00;100632.09;5070294;28;20207;-74
2022/12/28 07:38:56;;;;;;;1.63;0.90;;;;;;;6.44;100.00;100631.25;5059627;28;20215;-75
2022/12/28 07:41:26;;;;;;;0.80;0.77;;;;;;;6.42;100.00;100627.78;5064133;28;20312;-74
2022/12/28 07:43:52;;;;;;;2.47;0.70;;;;;;;6.40;100.00;100630.34;5063904;28;20182;-74
2022/12/28 07:46:23;;;;;;;1.20;0.97;;;;;;;6.42;100.00;100634.66;5078532;28;20205;-75
2022/12/28 07:48:50;;;;;;;1.17;0.97;;;;;;;6.42;100.00;100625.22;5090709;28;20216;-74
2022/12/28 07:51:24;;;;;;;1.43;1.00;;;;;;;6.44;100.00;100617.50;5073431;28;20226;-74
2022/12/28 07:53:51;;;;;;;1.07;0.83;;;;;;;6.47;100.00;100626.16;5057469;28;20187;-74
2022/12/28 07:56:17;;;;;;;1.83;0.90;;;;;;;6.47;100.00;100628.72;5064474;28;20213;-74
2022/12/28 07:58:50;;;;;;;1.23;0.90;;;;;;;6.50;100.00;100617.59;5064224;28;20199;-74
2022/12/28 08:01:18;;;;;;;1.90;1.70;;;;;;;6.50;100.00;100618.47;5064502;28;20196;-74
2022/12/28 08:03:44;;;;;;;2.93;2.63;;;;;;;6.54;100.00;100617.66;5063645;28;20207;-74
2022/12/28 08:06:19;;;;;;;4.63;2.93;;;;;;;6.56;100.00;100613.41;5059813;28;20220;-73
2022/12/28 08:08:47;;;;;;;3.67;3.27;;;;;;;6.62;100.00;100620.31;5063118;28;20195;-74
2022/12/28 08:11:15;;;;;;;4.00;2.90;;;;;;;6.66;100.00;100613.50;5062621;28;20182;-74
2022/12/28 08:13:43;;;;;;;3.60;3.07;;;;;;;6.70;100.00;100617.84;5062903;28;20208;-74
2022/12/28 08:16:10;;;;;;;4.03;3.30;;;;;;;6.77;100.00;100608.50;5063598;28;20213;-74
2022/12/28 08:18:36;;;;;;;3.43;2.87;;;;;;;6.84;100.00;100613.72;5060909;28;20993;-75
2022/12/28 08:21:04;;;;;;;3.30;2.33;;;;;;;6.92;100.00;100611.25;5060834;28;20213;-74
2022/12/28 08:23:31;;;;;;;2.27;2.07;;;;;;;6.98;100.00;100606.19;5061310;28;20284;-74
2022/12/28 08:26:03;;;;;;;2.07;1.87;;;;;;;7.04;100.00;100613.09;5076495;28;20193;-74
2022/12/28 08:28:28;;;;;;;2.07;1.87;;;;;;;7.10;100.00;100610.59;5064474;28;20190;-75
2022/12/28 08:30:54;;;;;;;3.10;1.70;;;;;;;7.16;100.00;100610.66;5064830;28;20184;-75
2022/12/28 08:33:19;;;;;;;1.87;1.10;;;;;;;7.23;100.00;100613.28;5062833;28;21023;-75
2022/12/28 08:35:44;;;;;;;1.83;1.30;;;;;;;7.27;100.00;100615.91;5062337;28;20190;-74
2022/12/28 08:38:09;;;;;;;1.90;1.20;;;;;;;7.32;100.00;100609.09;5062092;28;20281;-74
2022/12/28 08:40:35;;;;;;;1.63;1.33;;;;;;;7.37;100.00;100605.69;5063618;28;20684;-74
2022/12/28 08:43:01;;;;;;;2.40;1.80;;;;;;;7.40;100.00;100592.84;5062904;28;20801;-74
2022/12/28 08:45:27;;;;;;;1.83;1.60;;;;;;;7.46;100.00;100591.19;5063361;28;20181;-75
2022/12/28 08:47:52;;;;;;;2.60;1.87;;;;;;;7.52;100.00;100600.69;5063344;28;20993;-74
2022/12/28 08:50:18;;;;;;;3.30;2.27;;;;;;;7.61;100.00;100593.03;5064636;28;20676;-74
2022/12/28 08:52:43;;;;;;;2.57;1.80;;;;;;;7.67;100.00;100599.97;5063255;28;20660;-74
2022/12/28 08:55:08;;;;;;;2.73;2.33;;;;;;;7.74;100.00;100595.72;5063705;28;20189;-74
2022/12/28 08:57:34;;;;;;;2.20;2.00;;;;;;;7.81;100.00;100594.91;5064767;28;20225;-74
2022/12/28 08:59:59;;;;;;;2.13;1.80;;;;;;;7.86;100.00;100598.38;5063515;28;20235;-74
2022/12/28 09:02:24;;;;;;;2.30;2.10;;;;;;;7.92;100.00;100588.13;5063012;28;20205;-74
2022/12/28 09:04:50;;;;;;;2.43;1.70;;;;;;;8.00;100.00;100587.28;5063736;28;20683;-74
2022/12/28 09:07:15;;;;;;;2.83;1.90;;;;;;;8.06;100.00;100583.03;5062630;28;20607;-74
2022/12/28 09:09:40;;;;;;;2.57;1.80;;;;;;;8.12;100.00;100582.22;5062579;28;20556;-74
2022/12/28 09:12:06;;;;;;;2.13;1.50;;;;;;;8.24;99.49;100584.00;5063995;28;20185;-75
2022/12/28 09:14:32;;;;;;;2.23;1.50;;;;;;;8.32;98.92;100584.03;5062281;28;20196;-74
2022/12/28 09:16:57;;;;;;;2.40;1.60;;;;;;;8.42;98.65;100584.97;5061995;28;20210;-74
2022/12/28 09:19:22;;;;;;;1.90;1.53;;;;;;;8.49;98.54;100589.31;5062200;28;20756;-74
2022/12/28 09:21:51;;;;;;;1.70;1.47;;;;;;;8.59;97.94;100585.06;5062207;28;20879;-75
2022/12/28 09:24:16;;;;;;;1.60;1.03;;;;;;;8.71;96.85;100590.25;5056092;28;20201;-74
2022/12/28 09:26:42;;;;;;;1.40;1.07;;;;;;;8.79;96.52;100590.28;5062165;28;20225;-75
2022/12/28 09:29:11;;;;;;;1.33;0.80;;;;;;;8.87;96.40;100601.50;5064887;28;20302;-74
2022/12/28 09:31:38;;;;;;;1.10;0.90;;;;;;;8.92;96.08;100593.78;5062345;28;20272;-74
2022/12/28 09:34:06;;;;;;;2.87;1.23;;;;;;;8.95;96.05;100593.78;5060624;28;20555;-75
2022/12/28 09:36:32;;;;;;;1.77;0.90;;;;;;;8.99;95.45;100593.78;5063374;28;20687;-74
2022/12/28 09:39:00;;;;;;;1.23;0.90;;;;;;;9.08;95.49;100594.66;5062936;28;20194;-75
2022/12/28 09:41:38;;;;;;;3.07;1.03;;;;;;;9.17;95.24;100592.13;5064771;28;20280;-75
2022/12/28 09:44:16;;;;;;;1.17;1.00;;;;;;;9.24;94.68;100596.41;5060414;28;20190;-74
2022/12/28 09:46:48;;;;;;;1.50;1.23;;;;;;;9.34;94.59;100588.69;5059307;28;20950;-75
2022/12/28 09:49:15;;;;;;;2.07;1.30;;;;;;;9.41;94.21;100588.69;5063957;28;20248;-74
2022/12/28 09:51:56;;;;;;;1.87;1.20;;;;;;;9.49;93.21;100585.25;5064316;28;20185;-74
2022/12/28 09:54:21;;;;;;;0.80;0.80;;;;;;;9.52;93.60;100585.25;5055440;28;20194;-75
2022/12/28 09:56:47;;;;;;;1.13;1.03;;;;;;;9.68;93.41;100593.88;5064441;28;20210;-74
2022/12/28 09:59:18;;;;;;;2.07;1.10;;;;;;;9.82;93.13;100597.31;5064258;28;20206;-74
2022/12/28 10:01:47;;;;;;;2.03;1.20;;;;;;;9.98;92.14;100597.28;5092053;28;20194;-75
2022/12/28 10:04:13;;;;;;;1.30;0.93;;;;;;;10.06;91.55;100598.13;5085967;28;20840;-74
2022/12/28 10:06:39;;;;;;;1.30;1.20;;;;;;;10.11;91.33;100600.69;5061875;28;20206;-74
2022/12/28 10:09:12;;;;;;;2.43;1.47;;;;;;;10.17;90.46;100595.53;5063191;28;20196;-74
2022/12/28 10:11:42;;;;;;;2.07;1.27;;;;;;;10.20;90.32;100598.13;5061297;28;20186;-75
2022/12/28 10:14:19;;;;;;;2.70;2.00;;;;;;;10.19;90.72;100592.06;5059989;28;20880;-75
2022/12/28 10:16:45;;;;;;;1.87;1.30;;;;;;;10.22;90.59;100598.94;5062394;28;20210;-74
2022/12/28 10:19:17;;;;;;;1.83;1.40;;;;;;;10.24;89.63;100580.84;5063431;28;20189;-74
2022/12/28 10:21:45;;;;;;;1.60;1.50;;;;;;;10.19;89.77;100576.53;5064936;28;20229;-74
2022/12/28 10:24:12;;;;;;;2.87;1.20;;;;;;;10.20;89.70;100577.44;5065481;28;20190;-75
2022/12/28 10:26:38;;;;;;;3.77;2.50;;;;;;;10.18;90.04;100576.56;5056371;28;20213;-75
2022/12/28 10:29:04;;;;;;;7.63;4.27;;;;;;;10.15;90.21;100573.97;5058772;28;20190;-74
2022/12/28 10:31:33;;;;;;;3.53;1.73;;;;;;;10.14;89.54;100565.34;5061536;28;20198;-74
2022/12/28 10:33:58;;;;;;;2.67;1.57;;;;;;;10.11;89.58;100562.78;5063259;28;20222;-74
2022/12/28 10:36:24;;;;;;;3.30;2.00;;;;;;;10.10;89.83;100555.91;5067621;28;20672;-74
2022/12/28 10:38:54;;;;;;;8.17;5.80;;;;;;;10.10;90.11;100557.59;5064679;28;20197;-75
2022/12/28 10:41:29;;;;;;;3.67;2.10;;;;;;;10.14;89.81;100548.97;5062469;28;20208;-75
2022/12/28 10:43:55;;;;;;;2.50;2.10;;;;;;;10.11;89.64;100542.09;5061418;28;20220;-75
2022/12/28 10:46:24;;;;;;;2.83;2.30;;;;;;;10.10;89.86;100545.56;5065157;28;20217;-75
2022/12/28 10:48:56;;;;;;;2.23;1.80;;;;;;;10.11;89.56;100538.63;5064059;28;21094;-74
2022/12/28 10:51:23;;;;;;;2.20;1.73;;;;;;;10.07;89.79;100530.88;5060029;28;20186;-74
2022/12/28 10:53:56;;;;;;;2.37;1.87;;;;;;;10.10;90.09;100526.56;5064815;28;20267;-74
2022/12/28 10:56:28;;;;;;;1.80;1.43;;;;;;;10.12;90.36;100519.66;5060157;28;20206;-75
2022/12/28 10:59:16;;;;;;;1.30;1.20;;;;;;;10.16;90.20;100517.06;5065821;28;20678;-75
2022/12/28 11:01:41;;;;;;;2.53;2.33;;;;;;;10.25;90.27;100513.59;5060507;28;20220;-75
2022/12/28 11:04:15;;;;;;;3.93;1.40;;;;;;;10.32;89.36;100506.66;5063844;28;20186;-75
2022/12/28 11:06:54;;;;;;;2.30;2.03;;;;;;;10.34;89.51;100502.34;5061739;28;20271;-74
2022/12/28 11:09:23;;;;;;;1.60;1.30;;;;;;;10.41;89.47;100495.44;5058957;28;20202;-75
2022/12/28 11:11:52;;;;;;;1.53;1.10;;;;;;;10.45;89.43;100495.41;5064714;28;20209;-74
2022/12/28 11:14:34;;;;;;;2.47;1.33;;;;;;;10.50;89.45;100491.09;5065218;28;20215;-74
2022/12/28 11:17:22;;;;;;;1.53;1.23;;;;;;;10.58;89.38;100493.63;5060619;28;20228;-75
2022/12/28 11:19:52;;;;;;;1.73;1.30;;;;;;;10.66;89.34;100483.22;5062932;28;20617;-74
2022/12/28 11:22:27;;;;;;;2.33;1.27;;;;;;;10.68;89.01;100477.16;5064973;28;20204;-73
2022/12/28 11:24:54;;;;;;;2.67;1.50;;;;;;;10.74;89.13;100478.84;5059946;28;20187;-75
2022/12/28 11:27:22;;;;;;;1.50;1.10;;;;;;;10.72;89.33;100472.84;5059869;28;20218;-74
2022/12/28 11:29:50;;;;;;;1.87;1.37;;;;;;;10.71;89.34;100468.53;5064222;28;20270;-75
2022/12/28 11:32:41;;;;;;;1.57;1.20;;;;;;;10.79;89.61;100465.91;5064080;28;20526;-75
2022/12/28 11:35:13;;;;;;;1.43;1.10;;;;;;;10.86;89.15;100459.78;5063499;28;20191;-75
2022/12/28 11:37:51;;;;;;;1.60;1.13;;;;;;;10.94;88.21;100460.63;5062285;28;20242;-75
2022/12/28 11:40:41;;;;;;;1.60;1.00;;;;;;;10.97;88.67;100460.56;5061691;28;20189;-75
2022/12/28 11:43:29;;;;;;;2.07;1.23;;;;;;;11.03;88.68;100462.28;5055155;28;20197;-75
2022/12/28 11:45:57;;;;;;;1.90;1.20;;;;;;;11.05;88.75;100454.47;5057323;28;21211;-74
2022/12/28 11:48:40;;;;;;;1.87;0.93;;;;;;;11.12;88.24;100444.06;5056799;28;20244;-75
2022/12/28 11:51:26;;;;;;;1.67;0.97;;;;;;;11.16;88.29;100449.22;5060052;28;20194;-75
2022/12/28 11:53:53;;;;;;;1.20;1.00;;;;;;;11.21;87.71;100445.72;5059715;28;20658;-75
2022/12/28 11:56:21;;;;;;;1.50;1.10;;;;;;;11.21;88.06;100437.94;5060329;28;20208;-74
2022/12/28 11:59:02;;;;;;;1.50;1.00;;;;;;;11.21;87.41;100435.34;5062976;28;20198;-74
2022/12/28 12:01:35;;;;;;;1.80;0.80;;;;;;;11.29;87.26;100425.75;5054264;28;20702;-74